Time;durP1;ratioP1;P1;durP2;ratioP2;P2;SDS_P1;SDS_P2;PMS_P1;PMS_P2;Temp;Humidity;BMP_temperature;BMP_pressure;BME280_temperature;BME280_humidity;BME280_pressure;Samples;Min_cycle;Max_cycle;Signal;HPM_P1;HPM_P2
2021/03/21 00:02:57;;;;;;;4.23;3.00;;;;;;;0.59;78.69;98742.14;3704494;79;44086;-18
2021/03/21 00:08:05;;;;;;;4.60;2.60;;;;;;;0.56;78.67;98730.87;3702183;79;44042;-18
2021/03/21 00:13:11;;;;;;;4.60;2.90;;;;;;;0.51;78.14;98720.54;3728346;79;44058;-18
2021/03/21 00:18:18;;;;;;;4.90;2.90;;;;;;;0.50;77.78;98711.33;3720097;79;44051;-19
2021/03/21 00:23:24;;;;;;;4.50;2.90;;;;;;;0.52;79.83;98698.39;3704272;79;44072;-18
2021/03/21 00:28:32;;;;;;;4.07;2.80;;;;;;;0.55;79.66;98696.86;3699594;78;44090;-18
2021/03/21 00:33:40;;;;;;;6.57;2.77;;;;;;;0.59;80.64;98697.07;3719819;79;43025;-20
2021/03/21 00:38:47;;;;;;;3.67;2.40;;;;;;;0.60;79.37;98680.22;3714912;79;44081;-19
2021/03/21 00:43:55;;;;;;;4.43;2.60;;;;;;;0.67;80.83;98678.51;3718846;79;43075;-18
2021/03/21 00:49:01;;;;;;;5.17;3.13;;;;;;;0.69;79.44;98662.04;3721288;79;43227;-18
2021/03/21 00:54:07;;;;;;;4.37;2.27;;;;;;;0.70;81.62;98656.66;3718508;77;44078;-19
2021/03/21 00:59:13;;;;;;;4.73;2.77;;;;;;;0.73;79.94;98653.80;3705068;79;43373;-18
2021/03/21 01:04:19;;;;;;;3.70;2.13;;;;;;;0.72;80.34;98637.51;3733511;79;43713;-19
2021/03/21 01:09:26;;;;;;;3.73;2.37;;;;;;;0.74;80.85;98631.64;3720997;79;44108;-18
2021/03/21 01:14:32;;;;;;;4.13;2.63;;;;;;;0.77;80.03;98616.00;3723762;79;43024;-19
2021/03/21 01:19:38;;;;;;;5.97;2.70;;;;;;;0.86;81.14;98610.16;3725601;79;43232;-18
2021/03/21 01:24:44;;;;;;;3.73;2.43;;;;;;;0.88;81.20;98604.25;3727264;79;44620;-18
2021/03/21 01:29:50;;;;;;;3.93;2.70;;;;;;;1.15;81.62;98609.27;3723944;79;43339;-18
2021/03/21 01:34:58;;;;;;;4.07;2.90;;;;;;;1.42;78.71;98605.79;3702555;79;43217;-19
2021/03/21 01:40:06;;;;;;;6.37;3.37;;;;;;;1.47;82.54;98603.70;3720222;79;44973;-19
2021/03/21 01:45:34;;;;;;;5.67;3.60;;;;;;;1.62;79.61;98600.52;3730515;79;43413;-19
2021/03/21 01:50:45;;;;;;;6.07;3.80;;;;;;;1.65;82.04;98591.03;3721217;79;43353;-19
2021/03/21 01:55:52;;;;;;;6.07;3.73;;;;;;;1.72;79.04;98586.17;3727459;79;44082;-19
2021/03/21 02:01:00;;;;;;;8.63;4.13;;;;;;;1.76;82.30;98572.58;3720795;79;43451;-19
2021/03/21 02:06:20;;;;;;;5.33;3.70;;;;;;;1.75;85.11;98560.25;3727505;77;44041;-19
2021/03/21 02:11:31;;;;;;;6.33;3.70;;;;;;;1.84;84.78;98556.14;3727836;79;43430;-18
2021/03/21 02:16:40;;;;;;;7.20;4.73;;;;;;;1.83;85.80;98554.43;3712536;79;44086;-19
2021/03/21 02:21:49;;;;;;;8.03;4.80;;;;;;;1.84;87.46;98545.51;3703949;77;44447;-19
2021/03/21 02:27:21;;;;;;;8.67;5.00;;;;;;;1.93;86.68;98545.37;3709460;79;44003;-19
2021/03/21 02:32:30;;;;;;;9.27;5.60;;;;;;;1.95;88.74;98527.50;3713408;78;43807;-18
2021/03/21 02:37:41;;;;;;;9.27;5.43;;;;;;;1.99;88.89;98518.38;3713430;79;43670;-19
2021/03/21 02:42:50;;;;;;;8.70;5.53;;;;;;;1.99;92.18;98517.05;3716054;79;44520;-19
2021/03/21 02:48:01;;;;;;;11.13;6.30;;;;;;;2.03;92.40;98511.91;3708192;78;43772;-19
2021/03/21 02:53:12;;;;;;;9.77;5.53;;;;;;;2.10;90.86;98502.54;3724878;79;43774;-19
2021/03/21 02:58:21;;;;;;;10.00;6.13;;;;;;;2.13;92.96;98490.38;3697428;79;43719;-22
2021/03/21 03:03:29;;;;;;;11.07;6.27;;;;;;;2.14;93.25;98478.80;3712104;78;43312;-18
2021/03/21 03:08:38;;;;;;;10.07;6.00;;;;;;;2.18;95.36;98478.56;3705335;78;44019;-19
2021/03/21 03:13:47;;;;;;;9.57;5.90;;;;;;;2.22;96.32;98469.42;3725643;78;44079;-18
2021/03/21 03:19:00;;;;;;;9.90;6.30;;;;;;;2.28;97.95;98453.89;3714797;78;43680;-19
2021/03/21 03:24:09;;;;;;;10.00;5.90;;;;;;;2.33;100.00;98446.09;3695453;79;44083;-19
2021/03/21 03:29:19;;;;;;;8.97;6.00;;;;;;;2.31;100.00;98448.83;3693680;79;44533;-19
2021/03/21 03:34:27;;;;;;;10.17;6.27;;;;;;;2.35;100.00;98453.48;3702535;79;43425;-18
2021/03/21 03:39:35;;;;;;;8.83;6.20;;;;;;;2.36;100.00;98436.08;3714294;79;44101;-18
2021/03/21 03:44:44;;;;;;;10.67;5.83;;;;;;;2.42;100.00;98431.64;3723998;79;43110;-19
2021/03/21 03:49:55;;;;;;;10.00;5.83;;;;;;;2.42;100.00;98414.84;3709101;79;43985;-19
2021/03/21 03:55:06;;;;;;;9.07;6.27;;;;;;;2.33;100.00;98408.37;3728976;79;44308;-18
2021/03/21 04:00:19;;;;;;;9.60;5.83;;;;;;;2.35;100.00;98403.80;3691853;79;44093;-18
2021/03/21 04:05:29;;;;;;;9.50;6.10;;;;;;;2.33;100.00;98391.09;3703669;79;43431;-19
2021/03/21 04:10:39;;;;;;;10.93;6.67;;;;;;;2.39;100.00;98385.34;3694257;79;44246;-20
2021/03/21 04:15:48;;;;;;;10.57;6.20;;;;;;;2.43;100.00;98377.50;3712751;78;43682;-18
2021/03/21 04:20:57;;;;;;;10.37;6.50;;;;;;;2.41;100.00;98358.14;3713564;79;43702;-19
2021/03/21 04:26:06;;;;;;;12.13;6.93;;;;;;;2.43;100.00;98349.58;3730648;79;43660;-19
2021/03/21 04:31:14;;;;;;;12.07;6.73;;;;;;;2.45;100.00;98347.66;3713040;78;43704;-18
2021/03/21 04:36:24;;;;;;;11.30;6.73;;;;;;;2.46;100.00;98337.89;3718252;79;43472;-19
2021/03/21 04:41:33;;;;;;;10.57;6.63;;;;;;;2.37;100.00;98353.16;3714564;78;44101;-19
2021/03/21 04:46:42;;;;;;;11.20;6.90;;;;;;;2.37;100.00;98355.36;3717757;79;43364;-19
2021/03/21 04:51:50;;;;;;;13.30;7.00;;;;;;;2.39;100.00;98348.13;3723517;79;44161;-19
2021/03/21 04:56:59;;;;;;;10.50;6.57;;;;;;;2.38;100.00;98349.09;3642664;80;43669;-19
2021/03/21 05:02:10;;;;;;;11.47;7.23;;;;;;;2.37;100.00;98341.20;3706031;79;42810;-19
2021/03/21 05:07:28;;;;;;;10.93;6.40;;;;;;;2.36;100.00;98327.53;3716230;77;43687;-19
2021/03/21 05:12:38;;;;;;;9.67;6.40;;;;;;;2.35;100.00;98333.34;3721797;77;43309;-19
2021/03/21 05:17:53;;;;;;;9.83;5.77;;;;;;;2.37;100.00;98322.59;3693846;79;43357;-19
2021/03/21 05:23:04;;;;;;;8.77;5.67;;;;;;;2.37;100.00;98315.94;3701734;79;43035;-19
2021/03/21 05:28:14;;;;;;;10.40;6.30;;;;;;;2.36;100.00;98315.11;3703084;78;44316;-19
2021/03/21 05:33:22;;;;;;;11.53;6.07;;;;;;;2.37;100.00;98312.82;3714870;79;43464;-19
2021/03/21 05:38:32;;;;;;;10.13;7.13;;;;;;;2.40;100.00;98314.40;3714994;79;43718;-19
2021/03/21 05:44:31;;;;;;;10.13;6.27;;;;;;;2.37;100.00;98297.33;3711782;79;44212;-19
2021/03/21 05:50:09;;;;;;;10.40;5.80;;;;;;;2.40;100.00;98308.62;3694000;79;43332;-19
2021/03/21 05:55:48;;;;;;;12.10;6.77;;;;;;;2.39;100.00;98306.91;3705822;79;43322;-19
2021/03/21 06:01:18;;;;;;;11.77;6.67;;;;;;;2.25;100.00;98291.95;3710076;79;43257;-19
2021/03/21 06:07:01;;;;;;;11.73;6.93;;;;;;;2.15;100.00;98306.41;3701593;79;44086;-20
2021/03/21 06:12:15;;;;;;;12.27;7.00;;;;;;;2.11;100.00;98292.96;3617100;80;43706;-19
2021/03/21 06:17:51;;;;;;;11.23;7.13;;;;;;;2.02;100.00;98293.64;3658439;80;43657;-19
2021/03/21 06:23:16;;;;;;;11.97;7.43;;;;;;;1.99;100.00;98287.20;3661993;80;44039;-18
2021/03/21 06:29:15;;;;;;;11.77;7.20;;;;;;;1.91;100.00;98279.78;3636593;80;43992;-17
2021/03/21 06:34:29;;;;;;;12.17;7.77;;;;;;;1.89;100.00;98278.20;3537862;82;43672;-18
2021/03/21 06:40:11;;;;;;;14.47;8.27;;;;;;;1.88;100.00;98268.53;3647455;80;43476;-18
2021/03/21 06:45:58;;;;;;;11.67;7.77;;;;;;;1.90;100.00;98254.17;3653792;80;44049;-18
2021/03/21 06:51:39;;;;;;;12.43;7.70;;;;;;;1.94;100.00;98251.67;3659936;80;44052;-18
2021/03/21 06:57:27;;;;;;;13.00;7.37;;;;;;;1.97;100.00;98251.92;3647605;80;44146;-17
2021/03/21 07:03:12;;;;;;;15.00;7.63;;;;;;;2.03;100.00;98249.30;3662902;79;43285;-17
2021/03/21 07:08:33;;;;;;;11.67;7.23;;;;;;;2.09;100.00;98253.69;3632059;78;43965;-16
2021/03/21 07:13:58;;;;;;;11.47;7.17;;;;;;;2.17;100.00;98245.16;3709230;78;43677;-17
2021/03/21 07:19:53;;;;;;;12.73;7.73;;;;;;;2.31;100.00;98239.68;3715117;78;43580;-17
2021/03/21 07:25:12;;;;;;;12.77;7.47;;;;;;;2.42;100.00;98242.86;3690542;78;44109;-17
2021/03/21 07:30:24;;;;;;;12.37;7.30;;;;;;;2.50;100.00;98230.81;3730427;78;42942;-17
2021/03/21 07:36:03;;;;;;;13.63;6.90;;;;;;;2.59;100.00;98232.78;3731421;78;42918;-17
2021/03/21 07:41:14;;;;;;;10.23;6.70;;;;;;;2.75;100.00;98239.98;3730085;78;43705;-17
2021/03/21 07:46:42;;;;;;;10.90;6.33;;;;;;;2.84;100.00;98235.75;3741249;78;44091;-17
2021/03/21 07:51:57;;;;;;;9.63;6.00;;;;;;;2.94;100.00;98231.91;3731706;78;44073;-17
2021/03/21 07:57:06;;;;;;;8.63;4.87;;;;;;;2.98;100.00;98218.75;3735069;77;43455;-18
2021/03/21 08:02:15;;;;;;;9.60;6.30;;;;;;;3.04;100.00;98241.37;3733110;78;44090;-18
2021/03/21 08:07:26;;;;;;;8.30;5.63;;;;;;;3.08;100.00;98209.08;3726837;78;43590;-17
2021/03/21 08:12:40;;;;;;;9.73;5.97;;;;;;;3.17;100.00;98204.00;3719268;78;43483;-18
2021/03/21 08:17:50;;;;;;;8.47;5.93;;;;;;;3.30;100.00;98209.20;3723769;79;42509;-17
2021/03/21 08:23:00;;;;;;;9.33;5.70;;;;;;;3.41;100.00;98211.03;3725538;79;42877;-16
2021/03/21 08:28:07;;;;;;;7.40;4.63;;;;;;;3.57;100.00;98203.53;3724446;79;43155;-17
2021/03/21 08:33:27;;;;;;;8.23;5.40;;;;;;;3.66;100.00;98208.11;3728141;79;44069;-18
2021/03/21 08:38:36;;;;;;;7.00;4.57;;;;;;;3.75;100.00;98179.89;3724613;79;43374;-18
2021/03/21 08:43:44;;;;;;;7.63;4.47;;;;;;;3.90;100.00;98187.12;3717713;79;43273;-17
2021/03/21 08:48:57;;;;;;;5.80;4.03;;;;;;;4.05;100.00;98174.35;3718816;79;43289;-17
2021/03/21 08:54:05;;;;;;;5.73;3.97;;;;;;;4.19;100.00;98164.37;3725055;79;43389;-18
2021/03/21 08:59:28;;;;;;;6.93;4.20;;;;;;;4.24;100.00;98161.68;3712866;79;43674;-18
2021/03/21 09:04:36;;;;;;;5.87;3.63;;;;;;;4.21;100.00;98150.44;3720062;79;43673;-20
2021/03/21 09:09:42;;;;;;;8.23;4.03;;;;;;;4.26;100.00;98147.73;3717481;79;43393;-17
2021/03/21 09:14:49;;;;;;;5.73;3.90;;;;;;;4.38;100.00;98146.35;3725295;79;44364;-18
2021/03/21 09:19:59;;;;;;;4.40;2.97;;;;;;;4.50;100.00;98141.32;3719130;79;43987;-18
2021/03/21 09:25:10;;;;;;;5.30;3.40;;;;;;;4.47;100.00;98144.23;3729083;79;43406;-18
2021/03/21 09:30:22;;;;;;;6.27;3.87;;;;;;;4.60;100.00;98136.89;3716535;79;44030;-19
2021/03/21 09:35:34;;;;;;;5.87;3.73;;;;;;;4.61;100.00;98134.58;3722929;79;43675;-20
2021/03/21 09:40:43;;;;;;;5.60;3.43;;;;;;;5.26;100.00;98150.87;3722129;79;44224;-20
2021/03/21 09:45:51;;;;;;;4.83;3.60;;;;;;;5.06;100.00;98132.57;3721979;79;43974;-24
2021/03/21 09:51:02;;;;;;;4.83;3.20;;;;;;;5.24;100.00;98154.98;3712486;79;43722;-18
2021/03/21 09:56:12;;;;;;;4.93;2.87;;;;;;;5.77;100.00;98122.33;3722396;79;44019;-21
2021/03/21 10:01:22;;;;;;;2.70;2.10;;;;;;;5.77;100.00;98142.84;3719444;79;43300;-21
2021/03/21 10:06:32;;;;;;;1.93;1.53;;;;;;;6.15;100.00;98139.43;3719245;79;43588;-20
2021/03/21 10:11:43;;;;;;;3.00;1.63;;;;;;;6.16;100.00;98134.91;3722932;79;44027;-20
2021/03/21 10:16:49;;;;;;;2.17;1.60;;;;;;;5.64;100.00;98144.45;3728409;79;43480;-20
2021/03/21 10:21:55;;;;;;;2.33;1.60;;;;;;;5.86;100.00;98136.70;3720734;79;43482;-21
2021/03/21 10:27:54;;;;;;;2.10;1.10;;;;;;;6.01;100.00;98116.59;3720359;79;43320;-16
2021/03/21 10:33:32;;;;;;;1.57;1.10;;;;;;;6.24;100.00;98111.48;3472846;82;42929;-74
2021/03/21 10:38:49;;;;;;;1.20;0.90;;;;;;;6.38;100.00;98117.74;3676596;80;43252;-71
2021/03/21 10:44:01;;;;;;;2.53;0.90;;;;;;;6.53;100.00;98120.81;3670417;80;43433;-74
2021/03/21 10:49:08;;;;;;;1.97;0.90;;;;;;;6.40;100.00;98120.27;3670168;80;44044;-73
2021/03/21 10:54:25;;;;;;;1.00;0.90;;;;;;;6.40;100.00;98132.30;3592998;82;43993;-72
2021/03/21 10:59:32;;;;;;;2.23;1.07;;;;;;;6.40;100.00;98126.48;3669263;80;43423;-72
2021/03/21 11:05:03;;;;;;;3.10;1.80;;;;;;;6.17;100.00;98131.25;3588673;82;43427;-70
2021/03/21 11:10:17;;;;;;;1.87;1.30;;;;;;;6.02;100.00;98142.86;3578454;82;44209;-73
2021/03/21 11:15:36;;;;;;;4.03;1.30;;;;;;;5.94;100.00;98138.68;3666782;80;44029;-72
2021/03/21 11:20:42;;;;;;;2.67;1.33;;;;;;;6.00;100.00;98136.80;3666883;80;43996;-73
2021/03/21 11:25:49;;;;;;;2.90;1.37;;;;;;;6.27;100.00;98139.29;3673871;80;43146;-69
2021/03/21 11:30:58;;;;;;;4.10;1.20;;;;;;;6.34;98.94;98150.27;3667418;80;44099;-71
2021/03/21 11:36:26;;;;;;;4.00;1.20;;;;;;;6.26;94.58;98153.65;3658634;80;44049;-71
2021/03/21 11:41:38;;;;;;;2.70;1.77;;;;;;;6.50;92.26;98155.05;3657696;79;44366;-71
2021/03/21 11:46:44;;;;;;;6.00;1.50;;;;;;;6.63;95.51;98152.42;3637672;80;43429;-70
2021/03/21 11:51:53;;;;;;;4.70;1.73;;;;;;;6.43;93.64;98170.32;3592291;82;43682;-71
2021/03/21 11:57:06;;;;;;;6.40;1.80;;;;;;;6.29;87.24;98149.36;3626968;80;42564;-71
2021/03/21 12:02:37;;;;;;;7.97;2.50;;;;;;;6.21;83.35;98140.70;3620610;80;43953;-71
2021/03/21 12:07:43;;;;;;;6.07;2.30;;;;;;;6.24;86.38;98145.74;3637207;80;43482;-71
2021/03/21 12:12:49;;;;;;;13.00;2.30;;;;;;;6.07;85.02;98151.80;3610375;79;43709;-70
2021/03/21 12:18:04;;;;;;;14.03;3.57;;;;;;;6.29;87.63;98161.41;3647754;79;43761;-70
2021/03/21 12:23:36;;;;;;;11.00;2.43;;;;;;;6.66;86.14;98155.80;3688289;80;44065;-71
2021/03/21 12:28:52;;;;;;;9.67;2.80;;;;;;;6.39;85.13;98145.33;3622462;81;44509;-71
2021/03/21 12:33:59;;;;;;;8.35;2.62;;;;;;;6.41;84.36;98157.57;3573556;81;70157;-71
2021/03/21 12:39:31;;;;;;;9.90;2.93;;;;;;;6.17;84.47;98142.78;3605558;81;43662;-70
2021/03/21 12:44:37;;;;;;;8.23;3.10;;;;;;;6.13;85.91;98152.57;3618941;81;44391;-70
2021/03/21 12:49:50;;;;;;;10.67;3.20;;;;;;;6.21;85.82;98152.73;3614817;81;43795;-70
2021/03/21 12:54:56;;;;;;;16.17;3.30;;;;;;;6.19;87.35;98156.52;3624883;81;44470;-72
2021/03/21 13:00:03;;;;;;;12.33;3.00;;;;;;;6.32;86.36;98139.70;3676578;80;44067;-72
2021/03/21 13:05:17;;;;;;;10.93;2.83;;;;;;;6.47;84.77;98138.29;3675459;80;43128;-73
2021/03/21 13:10:24;;;;;;;13.67;3.23;;;;;;;6.34;82.74;98139.06;3675861;80;44019;-70
2021/03/21 13:15:30;;;;;;;12.03;2.90;;;;;;;6.53;83.40;98144.91;3676038;80;43711;-71
2021/03/21 13:20:38;;;;;;;6.73;2.30;;;;;;;6.78;84.87;98151.48;3667265;80;43681;-73
2021/03/21 13:25:49;;;;;;;14.57;3.60;;;;;;;6.85;78.94;98161.63;3677551;80;43741;-73
2021/03/21 13:30:57;;;;;;;11.63;3.20;;;;;;;7.20;81.79;98146.73;3655413;80;43673;-73
2021/03/21 13:36:07;;;;;;;17.10;4.13;;;;;;;6.86;81.57;98150.77;3649712;81;43583;-72
2021/03/21 13:41:13;;;;;;;14.57;3.53;;;;;;;6.96;83.54;98152.09;3644765;81;43780;-72
2021/03/21 13:46:19;;;;;;;15.13;3.37;;;;;;;6.84;82.67;98162.61;3652130;81;43677;-71
2021/03/21 13:51:27;;;;;;;11.20;3.10;;;;;;;6.41;83.32;98175.47;3647806;81;44131;-71
2021/03/21 13:56:33;;;;;;;18.03;3.27;;;;;;;6.22;85.55;98180.31;3661181;81;44048;-71
2021/03/21 14:01:40;;;;;;;14.83;3.97;;;;;;;6.05;85.96;98185.39;3654592;81;42925;-70
2021/03/21 14:06:49;;;;;;;18.03;4.50;;;;;;;5.89;88.20;98170.33;3738250;79;43738;-71
2021/03/21 14:11:56;;;;;;;22.80;4.80;;;;;;;5.83;89.60;98189.92;3780802;76;288229;-70
2021/03/21 14:17:02;;;;;;;14.83;3.23;;;;;;;5.92;90.65;98186.09;3759433;77;43253;-69
2021/03/21 14:22:09;;;;;;;17.57;3.80;;;;;;;5.93;92.47;98194.48;3751575;77;43836;-68
2021/03/21 14:27:17;;;;;;;13.17;3.40;;;;;;;5.85;92.60;98194.65;3783000;77;44054;-68
2021/03/21 14:32:24;;;;;;;12.83;3.77;;;;;;;5.83;92.78;98187.25;3778103;77;44739;-69
2021/03/21 14:37:30;;;;;;;15.13;3.80;;;;;;;5.70;92.89;98190.69;3787790;77;43681;-71
2021/03/21 14:42:38;;;;;;;14.50;3.30;;;;;;;5.63;93.02;98214.91;3791243;77;44002;-70
2021/03/21 14:47:46;;;;;;;20.03;4.13;;;;;;;5.55;94.89;98209.77;3793109;77;43686;-69
2021/03/21 14:52:54;;;;;;;22.23;3.77;;;;;;;5.62;95.48;98197.18;3787760;77;43378;-69
2021/03/21 14:58:00;;;;;;;16.13;3.73;;;;;;;5.63;96.16;98189.05;3789134;77;44055;-72
2021/03/21 15:03:07;;;;;;;15.60;3.87;;;;;;;5.56;96.27;98190.55;3785187;77;44084;-70
2021/03/21 15:08:17;;;;;;;14.27;3.80;;;;;;;5.52;97.10;98193.98;3785384;77;43457;-73
2021/03/21 15:13:23;;;;;;;11.73;3.53;;;;;;;5.47;95.25;98194.03;3780096;77;43694;-72
2021/03/21 15:18:29;;;;;;;17.53;3.93;;;;;;;5.53;97.16;98188.14;3791897;77;43567;-71
2021/03/21 15:23:37;;;;;;;16.03;3.63;;;;;;;5.57;98.36;98187.41;3804291;77;43561;-71
2021/03/21 15:28:49;;;;;;;16.10;4.13;;;;;;;5.57;98.37;98194.09;3790576;77;44055;-72
2021/03/21 15:33:52;;;;;;;12.63;3.93;;;;;;;5.62;97.28;98199.86;3773419;77;44311;-73
2021/03/21 15:38:59;;;;;;;19.23;4.03;;;;;;;5.53;96.01;98198.36;3797361;77;43604;-72
2021/03/21 15:44:05;;;;;;;23.07;4.47;;;;;;;5.53;96.91;98185.47;3791246;77;43406;-72
2021/03/21 15:49:12;;;;;;;16.37;3.50;;;;;;;5.57;99.00;98188.23;3786344;77;43287;-70
2021/03/21 15:54:18;;;;;;;17.60;4.23;;;;;;;5.64;97.11;98191.22;3791185;77;43694;-71
2021/03/21 15:59:24;;;;;;;18.30;4.67;;;;;;;5.86;96.04;98199.52;3785842;77;42715;-71
2021/03/21 16:04:41;;;;;;;15.47;3.63;;;;;;;6.02;92.68;98211.06;3764716;77;43606;-71
2021/03/21 16:09:48;;;;;;;17.40;3.83;;;;;;;6.25;91.44;98194.25;3769210;77;43709;-72
2021/03/21 16:14:54;;;;;;;15.87;3.80;;;;;;;6.06;96.19;98195.07;3788524;77;42880;-72
2021/03/21 16:20:01;;;;;;;20.27;4.47;;;;;;;5.79;97.15;98199.69;3789706;77;43693;-71
2021/03/21 16:25:09;;;;;;;14.57;4.07;;;;;;;5.76;96.87;98181.28;3805534;77;43702;-71
2021/03/21 16:30:21;;;;;;;18.63;3.90;;;;;;;5.71;95.49;98206.58;3785778;77;44051;-71
2021/03/21 16:35:30;;;;;;;16.03;3.90;;;;;;;5.54;96.83;98197.38;3794288;77;43333;-72
2021/03/21 16:40:38;;;;;;;17.67;5.63;;;;;;;5.40;96.95;98203.08;3785655;77;43678;-71
2021/03/21 16:45:47;;;;;;;15.63;4.07;;;;;;;5.31;97.61;98203.89;3787258;77;43686;-69
2021/03/21 16:50:54;;;;;;;14.00;4.03;;;;;;;5.26;100.00;98205.62;3804723;77;43681;-68
2021/03/21 16:56:03;;;;;;;18.80;4.10;;;;;;;5.16;99.21;98205.56;3790565;77;44079;-70
2021/03/21 17:01:09;;;;;;;19.87;4.73;;;;;;;5.06;99.65;98218.02;3799428;77;43628;-73
2021/03/21 17:06:17;;;;;;;14.70;3.60;;;;;;;5.00;99.68;98222.05;3782152;77;43690;-72
2021/03/21 17:11:23;;;;;;;18.83;4.20;;;;;;;4.96;100.00;98228.62;3791559;77;44098;-69
2021/03/21 17:16:30;;;;;;;19.87;4.57;;;;;;;4.91;100.00;98223.67;3792084;77;44312;-72
2021/03/21 17:21:36;;;;;;;19.83;3.83;;;;;;;4.85;100.00;98232.69;3790640;77;43682;-70
2021/03/21 17:26:43;;;;;;;20.43;4.43;;;;;;;4.76;99.97;98249.84;3793127;77;44585;-72
2021/03/21 17:31:51;;;;;;;16.27;3.90;;;;;;;4.78;97.10;98233.70;3796782;77;44933;-72
2021/03/21 17:36:58;;;;;;;16.57;4.07;;;;;;;4.69;99.50;98246.48;3793406;77;44481;-71
2021/03/21 17:42:08;;;;;;;17.13;3.37;;;;;;;4.73;97.99;98251.94;3794062;77;43285;-70
2021/03/21 17:47:15;;;;;;;18.33;3.90;;;;;;;4.60;98.04;98255.63;3812573;77;44065;-69
2021/03/21 17:52:22;;;;;;;18.87;4.17;;;;;;;4.51;99.34;98248.39;3788078;77;44399;-69
2021/03/21 17:57:29;;;;;;;17.37;3.50;;;;;;;4.47;98.57;98246.44;3800853;77;43525;-69
2021/03/21 18:02:35;;;;;;;14.87;3.70;;;;;;;4.42;98.73;98247.80;3763464;77;44033;-69
2021/03/21 18:07:44;;;;;;;17.63;4.13;;;;;;;4.44;99.01;98260.52;3779100;77;42893;-69
2021/03/21 18:12:52;;;;;;;18.20;3.67;;;;;;;4.36;99.41;98269.65;3782925;77;43381;-69
2021/03/21 18:17:59;;;;;;;18.80;3.57;;;;;;;4.32;98.32;98275.23;3772538;77;43311;-70
2021/03/21 18:23:07;;;;;;;17.53;3.70;;;;;;;4.25;99.37;98279.37;3787384;77;44046;-71
2021/03/21 18:28:14;;;;;;;21.23;3.87;;;;;;;4.19;99.65;98285.69;3779666;77;43999;-71
2021/03/21 18:33:25;;;;;;;15.50;3.70;;;;;;;4.24;98.19;98296.81;3778469;77;43041;-71
2021/03/21 18:38:31;;;;;;;15.20;3.40;;;;;;;4.15;99.93;98293.93;3736383;79;43494;-71
2021/03/21 18:43:39;;;;;;;12.97;3.40;;;;;;;4.18;100.00;98318.16;3659049;80;44118;-71
2021/03/21 18:48:45;;;;;;;15.50;3.53;;;;;;;3.97;100.00;98328.23;3668793;80;43686;-72
2021/03/21 18:53:52;;;;;;;14.97;3.30;;;;;;;4.00;100.00;98324.47;3730541;79;43050;-70
2021/03/21 18:58:59;;;;;;;14.47;3.90;;;;;;;4.04;100.00;98328.60;3734939;79;43993;-73
2021/03/21 19:04:06;;;;;;;15.30;3.80;;;;;;;3.95;100.00;98340.84;3733076;79;43694;-71
2021/03/21 19:09:13;;;;;;;13.60;3.23;;;;;;;3.87;100.00;98345.94;3728906;79;43988;-71
2021/03/21 19:14:28;;;;;;;13.23;4.00;;;;;;;3.75;100.00;98354.89;3720303;79;44455;-70
2021/03/21 19:19:34;;;;;;;18.13;3.40;;;;;;;3.67;100.00;98340.83;3725437;79;43160;-71
2021/03/21 19:24:40;;;;;;;21.13;4.10;;;;;;;3.56;100.00;98355.00;3667643;80;43297;-71
2021/03/21 19:29:47;;;;;;;15.23;3.23;;;;;;;3.51;100.00;98351.36;3725573;79;43571;-71
2021/03/21 19:34:53;;;;;;;17.60;5.43;;;;;;;3.46;100.00;98356.67;3665986;80;43198;-71
2021/03/21 19:39:59;;;;;;;18.80;3.97;;;;;;;3.48;100.00;98362.23;3724305;79;42774;-71
2021/03/21 19:45:08;;;;;;;15.47;3.10;;;;;;;3.48;100.00;98368.03;3726931;79;43221;-71
2021/03/21 19:50:18;;;;;;;11.83;3.57;;;;;;;3.34;100.00;98371.30;3703097;79;43718;-71
2021/03/21 19:55:24;;;;;;;19.73;3.70;;;;;;;3.34;100.00;98375.75;3696564;80;43688;-71
2021/03/21 20:00:30;;;;;;;17.83;3.50;;;;;;;3.33;100.00;98374.92;3590391;81;44424;-71
2021/03/21 20:05:36;;;;;;;14.23;2.63;;;;;;;3.28;100.00;98382.39;3643926;80;43921;-71
2021/03/21 20:10:43;;;;;;;14.40;3.20;;;;;;;3.27;100.00;98385.19;3707173;79;44014;-71
2021/03/21 20:15:49;;;;;;;12.47;2.80;;;;;;;3.15;100.00;98384.28;3707792;79;43980;-71
2021/03/21 20:20:56;;;;;;;11.83;3.47;;;;;;;3.17;100.00;98385.02;3708020;79;43632;-71
2021/03/21 20:26:03;;;;;;;15.90;3.10;;;;;;;3.13;100.00;98383.54;3665963;80;43535;-71
2021/03/21 20:31:09;;;;;;;12.57;3.00;;;;;;;3.24;100.00;98383.58;3600270;81;44093;-71
2021/03/21 20:36:16;;;;;;;17.60;3.40;;;;;;;3.23;100.00;98384.58;3556068;82;44516;-71
2021/03/21 20:41:23;;;;;;;10.13;3.23;;;;;;;3.12;100.00;98399.17;3709416;79;43314;-73
2021/03/21 20:46:30;;;;;;;11.87;3.00;;;;;;;3.15;100.00;98398.92;3712972;79;44063;-69
2021/03/21 20:51:36;;;;;;;22.33;3.87;;;;;;;3.02;100.00;98397.67;3714270;79;43183;-69
2021/03/21 20:56:44;;;;;;;15.87;3.47;;;;;;;2.90;100.00;98405.59;3719814;79;42832;-72
2021/03/21 21:01:50;;;;;;;14.67;3.67;;;;;;;2.94;100.00;98403.55;3714428;79;43681;-71
2021/03/21 21:06:58;;;;;;;12.10;3.33;;;;;;;2.96;100.00;98401.63;3719989;79;43343;-71
2021/03/21 21:12:06;;;;;;;15.57;3.23;;;;;;;2.92;100.00;98405.47;3724236;79;43196;-71
2021/03/21 21:17:12;;;;;;;14.60;3.00;;;;;;;2.84;100.00;98402.04;3724465;79;43969;-71
2021/03/21 21:22:18;;;;;;;14.93;3.10;;;;;;;2.74;100.00;98405.88;3727651;79;42803;-71
2021/03/21 21:27:25;;;;;;;20.00;3.57;;;;;;;2.69;100.00;98396.04;3734156;79;44082;-72
2021/03/21 21:32:30;;;;;;;12.47;3.47;;;;;;;2.65;100.00;98407.02;3741760;79;42734;-73
2021/03/21 21:37:36;;;;;;;13.53;3.30;;;;;;;2.57;100.00;98415.09;3749655;76;43974;-72
2021/03/21 21:42:42;;;;;;;13.03;3.53;;;;;;;2.48;100.00;98422.38;3752117;78;44516;-72
2021/03/21 21:47:51;;;;;;;13.27;3.27;;;;;;;2.48;100.00;98429.02;3690671;80;43024;-73
2021/03/21 21:52:57;;;;;;;16.33;4.30;;;;;;;2.46;100.00;98439.78;3703770;79;43252;-72
2021/03/21 21:58:03;;;;;;;14.20;3.87;;;;;;;2.52;100.00;98442.97;3635634;80;43993;-72
2021/03/21 22:03:10;;;;;;;12.80;3.87;;;;;;;2.53;100.00;98449.99;3713483;79;43147;-72
2021/03/21 22:08:18;;;;;;;14.07;3.20;;;;;;;2.60;100.00;98443.27;3642056;80;43210;-72
2021/03/21 22:13:32;;;;;;;16.23;3.33;;;;;;;2.65;100.00;98453.08;3709198;79;44035;-72
2021/03/21 22:18:38;;;;;;;15.17;3.80;;;;;;;2.69;100.00;98454.56;3668632;80;43975;-71
2021/03/21 22:23:45;;;;;;;12.43;3.27;;;;;;;2.70;100.00;98454.94;3706744;79;43960;-71
2021/03/21 22:28:51;;;;;;;13.70;3.67;;;;;;;2.71;100.00;98458.43;3708252;79;44406;-71
2021/03/21 22:34:01;;;;;;;15.23;3.30;;;;;;;2.61;100.00;98459.59;3709897;79;44451;-71
2021/03/21 22:39:09;;;;;;;12.77;3.20;;;;;;;2.56;100.00;98463.91;3702666;79;44036;-72
2021/03/21 22:44:17;;;;;;;15.77;3.43;;;;;;;2.58;100.00;98469.11;3633257;81;44435;-72
2021/03/21 22:49:23;;;;;;;12.87;4.10;;;;;;;2.56;100.00;98467.04;3613146;81;44071;-71
2021/03/21 22:54:29;;;;;;;14.53;3.60;;;;;;;2.51;100.00;98474.51;3681817;79;42455;-70
2021/03/21 22:59:34;;;;;;;18.60;3.53;;;;;;;2.55;100.00;98466.66;3752025;77;43954;-71
2021/03/21 23:04:40;;;;;;;13.03;3.30;;;;;;;2.56;100.00;98467.04;3770638;77;43218;-70
2021/03/21 23:09:46;;;;;;;17.23;3.50;;;;;;;2.57;100.00;98458.97;3761256;77;43968;-71
2021/03/21 23:14:52;;;;;;;14.23;4.17;;;;;;;2.58;100.00;98467.32;3778437;77;43181;-71
2021/03/21 23:19:57;;;;;;;17.77;3.40;;;;;;;2.58;100.00;98474.44;3781988;77;44433;-71
2021/03/21 23:25:05;;;;;;;18.53;4.10;;;;;;;2.61;100.00;98481.70;3773613;77;43592;-72
2021/03/21 23:30:13;;;;;;;15.13;3.63;;;;;;;2.64;100.00;98479.33;3784073;77;43442;-70
2021/03/21 23:35:20;;;;;;;12.87;2.90;;;;;;;2.63;100.00;98469.65;3758859;77;44068;-71
2021/03/21 23:40:29;;;;;;;15.87;3.20;;;;;;;2.58;100.00;98475.30;3752863;78;43279;-71
2021/03/21 23:45:35;;;;;;;11.03;2.90;;;;;;;2.61;100.00;98483.53;3728452;78;43908;-72
2021/03/21 23:50:44;;;;;;;14.00;3.40;;;;;;;2.55;100.00;98487.94;3684776;80;44054;-72
2021/03/21 23:55:50;;;;;;;17.90;3.57;;;;;;;2.47;100.00;98488.48;3607019;81;43587;-72
